createdAt,value
2022-09-03T11:36:48.125Z,1.37
2022-09-03T11:44:07.673Z,1.77
2022-09-03T11:46:34.752Z,1.20
2022-09-03T11:49:13.956Z,1.27
2022-09-03T11:51:45.033Z,1.27
2022-09-03T11:54:21.017Z,1.20
2022-09-03T11:56:49.768Z,1.20
2022-09-03T11:59:24.569Z,0.90
2022-09-03T12:01:53.221Z,0.90
2022-09-03T12:04:45.453Z,0.80
2022-09-03T12:07:25.455Z,0.80
2022-09-03T12:10:45.842Z,0.97
2022-09-03T12:13:24.111Z,0.80
2022-09-03T12:16:29.065Z,0.83
2022-09-03T12:19:22.234Z,0.90
2022-09-03T12:21:50.467Z,0.70
2022-09-03T12:24:19.239Z,0.80
2022-09-03T12:26:46.166Z,0.70
2022-09-03T12:29:28.181Z,0.87
2022-09-03T12:32:07.871Z,0.80
2022-09-03T12:34:34.939Z,0.80
2022-09-03T12:37:01.889Z,0.73
2022-09-03T12:42:28.291Z,0.80
2022-09-03T12:44:55.215Z,0.90
2022-09-03T12:47:39.847Z,0.90
2022-09-03T12:50:14.122Z,0.80
2022-09-03T12:52:53.799Z,0.83
2022-09-03T12:55:30.248Z,0.80
2022-09-03T12:58:13.609Z,0.80
2022-09-03T13:00:51.068Z,0.80
2022-09-03T13:03:32.158Z,0.80
2022-09-03T13:06:10.677Z,0.80
2022-09-03T13:09:00.254Z,0.80
2022-09-03T13:11:28.865Z,0.90
2022-09-03T13:14:07.159Z,1.03
2022-09-03T13:16:46.139Z,0.70
2022-09-03T13:19:42.716Z,1.13
2022-09-03T13:22:28.189Z,0.97
2022-09-03T13:25:25.602Z,1.00
2022-09-03T13:28:13.977Z,1.07
2022-09-03T13:30:55.853Z,0.87
2022-09-03T13:33:34.630Z,0.97
2022-09-03T13:36:14.929Z,0.90
2022-09-03T13:39:20.623Z,1.30
2022-09-03T13:42:06.762Z,1.33
2022-09-03T13:44:47.812Z,1.77
2022-09-03T13:48:09.185Z,1.80
